createdAt,value
2023-03-22T00:00:35.405Z,6.90
2023-03-22T00:02:39.202Z,6.80
2023-03-22T00:04:43.660Z,6.43
2023-03-22T00:06:48.597Z,6.90
2023-03-22T00:08:53.164Z,5.77
2023-03-22T00:10:56.600Z,7.57
2023-03-22T00:13:00.266Z,8.30
2023-03-22T00:15:03.692Z,6.90
2023-03-22T00:17:07.165Z,7.23
2023-03-22T00:19:10.670Z,9.23
2023-03-22T00:21:15.782Z,8.40
2023-03-22T00:23:21.102Z,10.67
2023-03-22T00:25:25.595Z,7.83
2023-03-22T00:27:29.056Z,8.07
2023-03-22T00:29:32.732Z,9.70
2023-03-22T00:31:36.278Z,9.10
2023-03-22T00:33:39.960Z,9.67
2023-03-22T00:35:49.573Z,8.53
2023-03-22T00:37:52.951Z,11.67
2023-03-22T00:39:57.871Z,7.47
2023-03-22T00:42:01.375Z,8.03
2023-03-22T00:44:04.812Z,8.23
2023-03-22T00:46:08.749Z,9.57
2023-03-22T00:48:13.401Z,8.60
2023-03-22T00:50:17.067Z,11.57
2023-03-22T00:52:21.409Z,8.23
2023-03-22T00:54:24.804Z,9.70
2023-03-22T00:56:30.270Z,7.93
2023-03-22T00:58:41.031Z,8.60
2023-03-22T01:00:45.312Z,8.00
2023-03-22T01:02:48.718Z,9.40
2023-03-22T01:04:57.171Z,7.67
2023-03-22T01:07:01.484Z,9.77
2023-03-22T01:09:05.815Z,8.90
2023-03-22T01:11:10.783Z,10.80
2023-03-22T01:13:17.840Z,10.93
2023-03-22T01:15:23.328Z,8.50
2023-03-22T01:17:28.390Z,7.70
2023-03-22T01:19:32.021Z,9.87
2023-03-22T01:21:35.475Z,10.70
2023-03-22T01:23:39.936Z,10.27
2023-03-22T01:25:43.771Z,8.40
2023-03-22T01:27:47.936Z,8.37
2023-03-22T01:29:53.056Z,10.80
2023-03-22T01:31:56.515Z,8.23
2023-03-22T01:34:00.166Z,9.10
2023-03-22T01:36:04.890Z,9.70
2023-03-22T01:38:10.413Z,8.43
2023-03-22T01:40:20.942Z,9.10
2023-03-22T01:42:25.302Z,9.20
2023-03-22T01:44:31.127Z,8.13
2023-03-22T01:46:37.946Z,9.27
2023-03-22T01:48:46.045Z,9.80
2023-03-22T01:50:59.804Z,9.40
2023-03-22T01:53:05.124Z,9.17
2023-03-22T01:55:14.154Z,9.33
2023-03-22T01:57:22.134Z,7.70
2023-03-22T01:59:26.379Z,7.93
2023-03-22T02:02:00.156Z,9.40
2023-03-22T02:04:09.046Z,8.50
2023-03-22T02:06:13.311Z,10.33
2023-03-22T02:08:17.285Z,10.03
2023-03-22T02:10:33.503Z,8.00
2023-03-22T02:12:50.498Z,8.87
2023-03-22T02:15:24.246Z,8.00
2023-03-22T02:17:59.713Z,8.33
2023-03-22T02:20:38.800Z,10.13
2023-03-22T02:23:27.670Z,9.80
2023-03-22T02:26:06.763Z,11.10
2023-03-22T02:28:28.561Z,9.10
2023-03-22T02:30:56.420Z,8.67
2023-03-22T02:33:41.878Z,7.37
2023-03-22T02:35:58.607Z,10.20
2023-03-22T02:38:36.786Z,7.57
2023-03-22T02:40:50.943Z,10.00
2023-03-22T02:43:00.325Z,9.07
2023-03-22T02:45:10.665Z,10.90
2023-03-22T02:47:22.870Z,9.70
2023-03-22T02:49:34.462Z,9.43
2023-03-22T02:51:43.676Z,7.50
2023-03-22T02:53:53.254Z,10.03
2023-03-22T02:56:01.264Z,10.60
2023-03-22T02:58:11.401Z,11.33
2023-03-22T03:00:18.392Z,8.10
2023-03-22T03:02:23.339Z,8.67
2023-03-22T03:04:31.104Z,8.30
2023-03-22T03:06:39.888Z,9.90
2023-03-22T03:08:46.768Z,8.43
2023-03-22T03:10:52.148Z,8.20
2023-03-22T03:12:57.289Z,9.03
2023-03-22T03:15:00.670Z,8.13
2023-03-22T03:17:18.870Z,9.67
2023-03-22T03:19:32.112Z,11.23
2023-03-22T03:21:45.218Z,8.67
2023-03-22T03:23:57.885Z,8.30
2023-03-22T03:26:07.256Z,10.60
2023-03-22T03:28:22.896Z,6.33
2023-03-22T03:30:34.534Z,8.87
2023-03-22T03:32:43.902Z,6.90
2023-03-22T03:34:52.793Z,7.50
2023-03-22T03:37:01.300Z,7.13
2023-03-22T03:39:09.915Z,6.70
2023-03-22T03:41:17.363Z,6.93
2023-03-22T03:43:23.037Z,8.00
2023-03-22T03:45:27.055Z,7.00
2023-03-22T03:47:32.152Z,7.70
2023-03-22T03:49:36.287Z,6.73
2023-03-22T03:51:50.280Z,9.07
2023-03-22T03:53:53.638Z,13.23
2023-03-22T03:55:58.968Z,6.93
2023-03-22T03:58:09.417Z,7.07
2023-03-22T04:00:15.879Z,8.67
2023-03-22T04:02:45.807Z,7.43
2023-03-22T04:05:07.385Z,9.53
2023-03-22T04:07:10.971Z,7.57
2023-03-22T04:09:16.167Z,6.40
2023-03-22T04:11:23.631Z,6.90
2023-03-22T04:13:30.632Z,7.00
2023-03-22T04:15:38.696Z,6.63
2023-03-22T04:17:49.640Z,7.00
2023-03-22T04:19:56.506Z,10.57
2023-03-22T04:22:00.351Z,8.30
2023-03-22T04:24:04.150Z,7.60
2023-03-22T04:26:12.840Z,7.37
2023-03-22T04:28:28.256Z,7.90
2023-03-22T04:30:36.491Z,7.23
2023-03-22T04:32:56.742Z,5.83
2023-03-22T04:35:10.871Z,8.60
2023-03-22T04:37:14.533Z,10.10
2023-03-22T04:39:45.373Z,9.20
2023-03-22T04:42:06.185Z,6.87
2023-03-22T04:44:10.825Z,9.10
2023-03-22T04:46:21.860Z,6.60
2023-03-22T04:48:41.479Z,7.80
2023-03-22T04:50:46.927Z,8.07
2023-03-22T04:52:50.932Z,14.00
2023-03-22T04:54:54.389Z,10.60
2023-03-22T04:56:57.838Z,8.80
2023-03-22T04:59:03.618Z,7.30
2023-03-22T05:01:07.850Z,9.43
2023-03-22T05:03:14.503Z,7.93
2023-03-22T05:05:22.036Z,9.03
2023-03-22T05:07:27.351Z,7.37
2023-03-22T05:09:34.407Z,9.70
2023-03-22T05:11:38.651Z,9.00
2023-03-22T05:14:00.912Z,10.00
2023-03-22T05:16:05.685Z,11.63
2023-03-22T05:18:21.657Z,8.83
2023-03-22T05:20:26.748Z,12.37
2023-03-22T05:22:43.156Z,11.40
2023-03-22T05:24:47.723Z,19.53
2023-03-22T05:26:57.081Z,16.50
2023-03-22T05:29:02.646Z,9.67
2023-03-22T05:31:34.467Z,9.90
2023-03-22T05:33:39.245Z,10.60
2023-03-22T05:35:45.865Z,9.40
2023-03-22T05:37:49.306Z,28.73
2023-03-22T05:39:53.235Z,11.00
2023-03-22T05:42:00.681Z,13.23
2023-03-22T05:44:05.015Z,12.17
2023-03-22T05:46:11.425Z,10.30
2023-03-22T05:48:31.896Z,10.10
2023-03-22T05:50:35.798Z,9.67
2023-03-22T05:52:42.765Z,10.00
2023-03-22T05:55:17.561Z,8.23
2023-03-22T05:57:21.764Z,9.97
2023-03-22T05:59:25.595Z,8.93
2023-03-22T06:01:29.044Z,10.80
2023-03-22T06:03:51.906Z,8.87
2023-03-22T06:06:15.876Z,8.33
2023-03-22T06:08:30.249Z,9.03
2023-03-22T06:10:36.171Z,9.13
2023-03-22T06:12:39.839Z,9.97
2023-03-22T06:14:48.627Z,9.20
2023-03-22T06:17:15.079Z,7.90
2023-03-22T06:19:18.572Z,7.13
2023-03-22T06:21:22.428Z,9.43
2023-03-22T06:23:26.042Z,8.00
2023-03-22T06:25:31.900Z,7.47
2023-03-22T06:27:36.231Z,8.00
2023-03-22T06:29:39.906Z,9.23
2023-03-22T06:31:44.213Z,8.43
2023-03-22T06:33:48.076Z,6.83
2023-03-22T06:36:05.803Z,7.67
2023-03-22T06:38:15.756Z,7.33
2023-03-22T06:40:19.916Z,7.50
2023-03-22T06:42:26.058Z,7.57
2023-03-22T06:44:42.263Z,7.93
2023-03-22T06:46:51.123Z,7.63
2023-03-22T06:49:15.377Z,6.77
2023-03-22T06:51:18.928Z,8.13
2023-03-22T06:53:22.749Z,6.50
2023-03-22T06:55:26.335Z,5.90
2023-03-22T06:57:31.505Z,6.60
2023-03-22T06:59:35.058Z,7.17
2023-03-22T07:01:39.107Z,5.53
2023-03-22T07:03:42.611Z,6.33
2023-03-22T07:05:51.702Z,8.90
2023-03-22T07:07:55.580Z,6.83
2023-03-22T07:09:59.193Z,9.60
2023-03-22T07:12:02.686Z,7.50
2023-03-22T07:14:07.912Z,7.40
2023-03-22T07:16:30.401Z,7.60
2023-03-22T07:18:37.046Z,5.90
2023-03-22T07:20:42.534Z,5.67
2023-03-22T07:22:47.026Z,5.70
2023-03-22T07:24:57.600Z,8.50
2023-03-22T07:27:04.623Z,6.17
2023-03-22T07:29:11.581Z,5.47
2023-03-22T07:31:16.394Z,6.13
2023-03-22T07:33:43.987Z,4.67
2023-03-22T07:35:48.074Z,6.67
2023-03-22T07:37:53.151Z,6.43
2023-03-22T07:40:04.130Z,7.63
2023-03-22T07:42:08.103Z,7.23
2023-03-22T07:44:24.987Z,7.23
2023-03-22T07:46:45.574Z,6.17
2023-03-22T07:48:59.735Z,5.47
2023-03-22T07:51:23.101Z,4.27
2023-03-22T07:53:26.921Z,5.37
2023-03-22T07:55:31.025Z,6.93
2023-03-22T07:57:35.038Z,4.73
2023-03-22T07:59:40.311Z,6.10
2023-03-22T08:01:44.923Z,4.80
2023-03-22T08:04:07.047Z,7.10
2023-03-22T08:06:26.785Z,7.90
2023-03-22T08:08:30.407Z,4.77
2023-03-22T08:10:35.820Z,4.53
2023-03-22T08:12:41.571Z,5.00
2023-03-22T08:14:55.177Z,5.60
2023-03-22T08:17:02.181Z,4.93
2023-03-22T08:19:07.481Z,5.80
2023-03-22T08:21:16.849Z,5.03
2023-03-22T08:23:38.515Z,5.17
2023-03-22T08:26:05.317Z,3.00
2023-03-22T08:28:10.329Z,6.23
2023-03-22T08:30:16.559Z,3.40
2023-03-22T08:32:20.816Z,10.63
2023-03-22T08:34:24.287Z,6.33
2023-03-22T08:36:31.240Z,5.00
2023-03-22T08:38:40.104Z,4.60
2023-03-22T08:40:46.745Z,3.20
2023-03-22T08:42:50.516Z,2.63
2023-03-22T08:44:54.313Z,4.30
2023-03-22T08:47:03.134Z,4.07
2023-03-22T08:49:10.341Z,6.07
2023-03-22T08:51:26.371Z,2.27
2023-03-22T08:53:46.711Z,2.23
2023-03-22T08:56:14.986Z,3.87
2023-03-22T08:58:27.254Z,3.43
2023-03-22T09:01:06.391Z,3.77
2023-03-22T09:03:18.586Z,1.30
2023-03-22T09:05:22.125Z,5.10
2023-03-22T09:07:26.076Z,1.77
2023-03-22T09:09:40.865Z,1.93
2023-03-22T09:11:45.695Z,2.60
2023-03-22T09:13:49.408Z,1.20
2023-03-22T09:15:53.846Z,2.97
2023-03-22T09:18:03.198Z,2.03
2023-03-22T09:20:12.713Z,2.63
2023-03-22T09:22:18.285Z,4.37
2023-03-22T09:24:25.179Z,2.77
2023-03-22T09:26:31.373Z,3.90
2023-03-22T09:28:38.197Z,2.27
2023-03-22T09:30:45.486Z,2.50
2023-03-22T09:32:52.079Z,2.70
2023-03-22T09:34:56.638Z,5.87
2023-03-22T09:37:04.777Z,2.20
2023-03-22T09:39:18.483Z,4.47
2023-03-22T09:41:37.179Z,2.57
2023-03-22T09:43:44.675Z,1.97
2023-03-22T09:45:53.111Z,4.07
2023-03-22T09:47:59.248Z,3.03
2023-03-22T09:50:08.112Z,1.40
2023-03-22T09:52:16.164Z,2.37
2023-03-22T09:54:22.022Z,2.10
2023-03-22T09:56:28.640Z,3.10
2023-03-22T09:58:37.056Z,1.33
2023-03-22T10:00:44.949Z,3.17
2023-03-22T10:02:58.467Z,2.27
2023-03-22T10:05:11.585Z,3.57
2023-03-22T10:07:27.273Z,2.40
2023-03-22T10:09:36.312Z,1.50
2023-03-22T10:11:46.201Z,1.97
2023-03-22T10:14:01.333Z,4.50
2023-03-22T10:16:07.820Z,3.40
2023-03-22T10:18:17.086Z,3.37
2023-03-22T10:20:31.609Z,1.97
2023-03-22T10:22:41.607Z,1.73
2023-03-22T10:24:49.940Z,3.57
2023-03-22T10:26:54.562Z,3.03
2023-03-22T10:29:04.012Z,2.00
2023-03-22T10:31:14.168Z,2.10
2023-03-22T10:33:24.708Z,2.10
2023-03-22T10:35:28.246Z,1.93
2023-03-22T10:37:37.630Z,3.67
2023-03-22T10:39:44.831Z,3.90
2023-03-22T10:41:50.068Z,2.63
2023-03-22T10:43:56.200Z,4.63
2023-03-22T10:46:02.400Z,5.03
2023-03-22T10:48:11.492Z,3.50
2023-03-22T10:50:21.248Z,1.53
2023-03-22T10:52:39.598Z,2.03
2023-03-22T10:54:43.193Z,2.27
2023-03-22T10:56:46.867Z,1.90
2023-03-22T10:58:51.545Z,2.00
2023-03-22T11:01:01.000Z,2.90
2023-03-22T11:03:07.120Z,2.57
2023-03-22T11:05:22.969Z,4.33
2023-03-22T11:07:37.181Z,1.20
2023-03-22T11:09:40.787Z,3.47
2023-03-22T11:11:50.870Z,1.40
2023-03-22T11:14:02.642Z,2.43
2023-03-22T11:16:06.865Z,3.40
2023-03-22T11:18:15.809Z,1.60
2023-03-22T11:20:20.915Z,2.13
2023-03-22T11:22:31.477Z,3.60
2023-03-22T11:24:36.852Z,1.90
2023-03-22T11:26:41.628Z,3.13
2023-03-22T11:28:48.988Z,1.87
2023-03-22T11:31:04.120Z,2.77
2023-03-22T11:33:18.540Z,3.27
2023-03-22T11:35:25.609Z,3.73
2023-03-22T11:37:29.423Z,2.30
2023-03-22T11:39:32.847Z,3.00
2023-03-22T11:41:40.338Z,1.97
2023-03-22T11:43:48.846Z,2.17
2023-03-22T11:45:57.574Z,3.20
2023-03-22T11:48:04.209Z,3.03
2023-03-22T11:50:10.740Z,2.70
2023-03-22T11:52:18.547Z,1.43
2023-03-22T11:54:29.924Z,3.17
2023-03-22T11:56:33.419Z,2.23
2023-03-22T11:59:01.118Z,2.67
2023-03-22T12:01:05.948Z,3.63
2023-03-22T12:03:16.369Z,3.57
2023-03-22T12:05:23.582Z,3.60
2023-03-22T12:07:29.371Z,2.33
2023-03-22T12:09:40.907Z,2.07
2023-03-22T12:11:48.012Z,4.93
2023-03-22T12:13:58.590Z,2.57
2023-03-22T12:16:07.382Z,2.70
2023-03-22T12:18:17.141Z,4.40
2023-03-22T12:20:31.717Z,2.03
2023-03-22T12:22:40.311Z,2.33
2023-03-22T12:24:43.857Z,1.93
2023-03-22T12:26:47.739Z,1.53
2023-03-22T12:28:57.296Z,2.37
2023-03-22T12:31:07.794Z,5.33
2023-03-22T12:33:19.028Z,7.30
2023-03-22T12:35:26.366Z,4.60
2023-03-22T12:37:34.960Z,1.83
2023-03-22T12:39:41.987Z,2.10
2023-03-22T12:41:49.667Z,3.57
2023-03-22T12:43:56.246Z,3.03
2023-03-22T12:46:02.328Z,3.30
2023-03-22T12:48:16.008Z,3.03
2023-03-22T12:50:22.517Z,2.83
2023-03-22T12:52:44.682Z,3.83
2023-03-22T12:54:51.605Z,2.83
2023-03-22T12:56:56.114Z,2.60
2023-03-22T12:59:04.529Z,4.30
2023-03-22T13:01:20.401Z,5.20
2023-03-22T13:03:29.780Z,5.43
2023-03-22T13:05:35.339Z,2.13
2023-03-22T13:07:51.462Z,3.10
2023-03-22T13:09:54.979Z,2.83
2023-03-22T13:12:29.960Z,2.00
2023-03-22T13:14:57.740Z,2.70
2023-03-22T13:17:01.694Z,2.30
2023-03-22T13:19:26.676Z,2.83
2023-03-22T13:21:33.008Z,3.83
2023-03-22T13:23:36.950Z,6.03
2023-03-22T13:25:59.343Z,2.30
2023-03-22T13:28:05.155Z,4.23
2023-03-22T13:30:18.485Z,5.07
2023-03-22T13:32:30.622Z,3.90
2023-03-22T13:34:39.809Z,3.67
2023-03-22T13:36:52.141Z,2.53
2023-03-22T13:39:02.764Z,4.23
2023-03-22T13:41:09.008Z,2.00
2023-03-22T13:43:22.938Z,2.60
2023-03-22T13:45:32.355Z,3.77
2023-03-22T13:47:39.436Z,3.30
2023-03-22T13:49:55.017Z,2.83
2023-03-22T13:52:03.107Z,1.77
2023-03-22T13:54:11.462Z,5.47
2023-03-22T13:56:29.319Z,6.23
2023-03-22T13:58:38.415Z,2.00
2023-03-22T14:00:54.707Z,3.00
2023-03-22T14:03:02.414Z,1.50
2023-03-22T14:05:16.451Z,1.63
2023-03-22T14:07:25.243Z,2.23
2023-03-22T14:09:32.525Z,4.37
2023-03-22T14:11:45.063Z,2.43
2023-03-22T14:13:52.358Z,2.60
2023-03-22T14:16:00.107Z,3.37
2023-03-22T14:18:10.787Z,4.20
2023-03-22T14:20:19.615Z,4.10
